Time;durP1;ratioP1;P1;durP2;ratioP2;P2;SDS_P1;SDS_P2;PMS_P1;PMS_P2;Temp;Humidity;BMP_temperature;BMP_pressure;BME280_temperature;BME280_humidity;BME280_pressure;Samples;Min_cycle;Max_cycle;Signal;HPM_P1;HPM_P2
2021/11/21 00:06:38;;;;;;;7.35;4.32;;;23.00;45.10;;;;;;31556171;28;20053;-48
2021/11/21 00:21:40;;;;;;;6.78;4.03;;;22.90;46.00;;;;;;31497753;28;20072;-47
2021/11/21 00:36:42;;;;;;;5.88;4.20;;;22.90;46.60;;;;;;31497563;28;20119;-45
2021/11/21 00:51:45;;;;;;;6.13;4.22;;;22.80;47.40;;;;;;31496050;28;20057;-45
2021/11/21 01:06:47;;;;;;;7.47;4.20;;;23.00;48.30;;;;;;31495325;28;20100;-45
2021/11/21 01:21:50;;;;;;;9.75;3.53;;;23.30;48.40;;;;;;31494686;28;20049;-42
2021/11/21 01:36:52;;;;;;;3.20;2.83;;;23.20;48.80;;;;;;31507927;28;20052;-38
2021/11/21 01:51:54;;;;;;;3.95;3.20;;;23.00;49.10;;;;;;31516262;28;20049;-40
2021/11/21 02:06:56;;;;;;;5.07;3.65;;;23.00;49.40;;;;;;31511390;28;20049;-47
2021/11/21 02:21:58;;;;;;;2.92;2.45;;;22.90;49.60;;;;;;31511442;28;20052;-39
2021/11/21 02:37:01;;;;;;;3.25;2.67;;;22.80;49.90;;;;;;31509895;28;20130;-39
2021/11/21 02:52:05;;;;;;;4.20;3.80;;;22.90;50.40;;;;;;31508548;28;20077;-37
2021/11/21 03:07:09;;;;;;;3.13;2.83;;;23.30;50.40;;;;;;31509014;28;20061;-42
2021/11/21 03:22:12;;;;;;;2.80;2.25;;;23.20;50.90;;;;;;31506251;28;20537;-44
2021/11/21 03:37:14;;;;;;;3.88;2.28;;;23.20;51.10;;;;;;31486840;28;20509;-43
2021/11/21 03:52:16;;;;;;;3.00;2.70;;;23.00;51.30;;;;;;31502721;28;20060;-38
2021/11/21 04:07:18;;;;;;;4.93;2.63;;;22.90;51.40;;;;;;31501399;28;20045;-43
2021/11/21 04:22:20;;;;;;;5.50;2.60;;;22.90;51.50;;;;;;31499200;28;20045;-44
2021/11/21 04:37:22;;;;;;;4.45;2.15;;;22.90;51.90;;;;;;31497766;28;20055;-43
2021/11/21 04:52:25;;;;;;;2.80;2.53;;;23.20;52.00;;;;;;31496226;28;20068;-50
2021/11/21 05:07:27;;;;;;;3.95;2.00;;;23.30;52.30;;;;;;31503283;28;20041;-47
2021/11/21 05:22:29;;;;;;;2.00;1.55;;;23.20;52.80;;;;;;31520292;28;20069;-47
2021/11/21 05:37:31;;;;;;;2.83;2.28;;;23.10;52.80;;;;;;31518311;28;20087;-47
2021/11/21 05:52:33;;;;;;;5.55;3.88;;;23.00;53.00;;;;;;31516385;28;20510;-48
2021/11/21 06:07:35;;;;;;;3.25;3.00;;;22.90;52.90;;;;;;31515088;28;20041;-35
2021/11/21 06:22:38;;;;;;;5.80;2.75;;;22.90;53.00;;;;;;31515017;28;20068;-41
2021/11/21 06:37:44;;;;;;;7.80;2.55;;;22.80;54.00;;;;;;31514207;28;20045;-41
2021/11/21 06:52:46;;;;;;;5.15;2.75;;;23.00;54.30;;;;;;31511871;28;20094;-37
2021/11/21 07:07:48;;;;;;;9.77;3.40;;;23.20;53.90;;;;;;31510366;28;20040;-36
2021/11/21 07:22:53;;;;;;;13.52;3.50;;;23.10;54.90;;;;;;31520226;28;20045;-43
2021/11/21 07:37:55;;;;;;;13.70;8.50;;;23.00;55.90;;;;;;31516322;28;20072;-48
2021/11/21 07:52:57;;;;;;;12.05;8.23;;;22.80;50.90;;;;;;31505824;28;20069;-47
2021/11/21 08:07:59;;;;;;;14.02;8.30;;;22.40;48.90;;;;;;31517641;28;20064;-39
2021/11/21 08:23:01;;;;;;;16.90;6.32;;;22.70;49.30;;;;;;31626902;28;20044;-42
2021/11/21 08:38:05;;;;;;;13.90;4.90;;;23.00;51.20;;;;;;31623705;28;20072;-38
2021/11/21 08:53:07;;;;;;;13.63;5.47;;;23.20;52.00;;;;;;31622311;28;20131;-43
2021/11/21 09:08:09;;;;;;;9.93;4.60;;;23.20;53.70;;;;;;31623476;28;20045;-42
2021/11/21 09:23:13;;;;;;;20.00;5.55;;;23.10;52.90;;;;;;31623081;28;20060;-43
2021/11/21 09:38:15;;;;;;;23.30;5.65;;;23.00;54.70;;;;;;31620383;28;20052;-46
2021/11/21 09:53:17;;;;;;;18.58;5.47;;;23.00;54.70;;;;;;31626033;28;20068;-41
2021/11/21 10:08:25;;;;;;;15.75;5.13;;;22.90;55.30;;;;;;31641526;28;20079;-43
2021/11/21 10:23:27;;;;;;;15.50;4.63;;;23.10;55.80;;;;;;31639832;28;20074;-37
2021/11/21 10:38:40;;;;;;;10.40;4.65;;;23.30;54.70;;;;;;31636930;28;20069;-38
2021/11/21 10:53:45;;;;;;;13.13;4.43;;;23.20;55.10;;;;;;31633885;28;20071;-39
2021/11/21 11:08:47;;;;;;;7.70;3.78;;;23.10;55.50;;;;;;31633710;28;20051;-39
2021/11/21 11:23:49;;;;;;;7.25;3.45;;;23.00;55.40;;;;;;31632625;28;20068;-39
2021/11/21 11:39:17;;;;;;;7.72;4.70;;;22.90;55.60;;;;;;31608738;28;20151;-47
2021/11/21 11:54:29;;;;;;;12.10;3.83;;;23.10;55.90;;;;;;31588531;28;20056;-38
2021/11/21 12:09:32;;;;;;;7.43;3.00;;;23.40;56.20;;;;;;31624952;28;20064;-45
2021/11/21 12:24:45;;;;;;;5.55;2.92;;;23.30;55.80;;;;;;31621718;28;20048;-51
2021/11/21 12:39:57;;;;;;;8.05;4.22;;;23.30;55.70;;;;;;31618596;28;20071;-44
2021/11/21 12:54:59;;;;;;;16.20;6.60;;;23.10;55.60;;;;;;31625020;28;20090;-51
2021/11/21 13:10:13;;;;;;;12.27;5.20;;;23.10;56.50;;;;;;31607787;28;20076;-51
2021/11/21 13:25:49;;;;;;;11.48;5.63;;;23.00;57.40;;;;;;31485627;28;20120;-54
2021/11/21 13:40:53;;;;;;;13.30;5.47;;;23.00;57.80;;;;;;31497549;28;20087;-47
2021/11/21 13:56:06;;;;;;;11.63;5.43;;;22.90;57.70;;;;;;31515267;28;20132;-50
2021/11/21 14:11:10;;;;;;;6.38;4.63;;;22.80;58.20;;;;;;31530365;28;20064;-42
2021/11/21 14:26:29;;;;;;;6.83;3.77;;;22.90;57.40;;;;;;31513307;28;20049;-40
2021/11/21 14:41:40;;;;;;;7.10;2.90;;;23.40;57.00;;;;;;31509773;28;20482;-49
2021/11/21 14:56:47;;;;;;;8.75;3.92;;;23.40;56.70;;;;;;31491622;28;20061;-50
2021/11/21 15:11:50;;;;;;;18.60;4.95;;;23.20;57.40;;;;;;31510906;28;20079;-47
2021/11/21 15:26:52;;;;;;;13.68;5.15;;;23.20;57.30;;;;;;31506991;28;20469;-42
2021/11/21 15:41:54;;;;;;;14.43;4.57;;;23.00;57.90;;;;;;31582782;28;20074;-45
2021/11/21 15:56:56;;;;;;;16.15;6.43;;;23.00;58.00;;;;;;31624729;28;20083;-49
2021/11/21 16:12:00;;;;;;;12.18;5.03;;;23.00;58.10;;;;;;31615350;28;20092;-50
2021/11/21 16:27:14;;;;;;;15.85;5.95;;;23.00;58.60;;;;;;31612993;28;20060;-50
2021/11/21 16:42:16;;;;;;;11.38;6.07;;;23.00;59.10;;;;;;31515542;28;20049;-41
2021/11/21 16:57:19;;;;;;;13.23;5.25;;;22.90;59.10;;;;;;31493352;28;20090;-42
2021/11/21 17:12:21;;;;;;;8.23;4.93;;;22.90;58.90;;;;;;31485222;28;20045;-42
2021/11/21 17:27:27;;;;;;;13.10;5.18;;;22.90;59.10;;;;;;31482727;28;20190;-45
2021/11/21 17:42:30;;;;;;;8.93;5.18;;;22.80;59.20;;;;;;31131610;28;9999899;-43
2021/11/21 17:57:32;;;;;;;7.10;4.53;;;22.90;59.30;;;;;;31480398;28;20068;-43
2021/11/21 18:12:34;;;;;;;9.32;4.35;;;22.90;59.10;;;;;;31489678;28;20048;-46
2021/11/21 18:27:37;;;;;;;14.05;4.90;;;22.80;58.70;;;;;;31566536;28;20068;-50
2021/11/21 18:42:39;;;;;;;15.27;5.60;;;22.70;59.00;;;;;;31511566;28;20045;-45
2021/11/21 18:57:44;;;;;;;10.93;4.90;;;22.70;59.40;;;;;;31209833;28;9999680;-53
2021/11/21 19:12:48;;;;;;;11.07;4.80;;;22.70;59.30;;;;;;31577024;28;20076;-43
2021/11/21 19:27:51;;;;;;;5.57;4.57;;;22.80;59.10;;;;;;31554159;28;20040;-40
2021/11/21 19:43:00;;;;;;;8.48;4.20;;;22.80;59.10;;;;;;31625015;28;20048;-41
2021/11/21 19:58:03;;;;;;;7.43;4.33;;;22.80;59.50;;;;;;31591256;28;20068;-47
2021/11/21 20:13:05;;;;;;;10.30;4.15;;;22.70;59.80;;;;;;31609289;28;20063;-40
2021/11/21 20:28:08;;;;;;;5.88;3.10;;;22.70;59.90;;;;;;31625520;28;20085;-43
2021/11/21 20:43:20;;;;;;;4.20;2.63;;;22.80;59.40;;;;;;31623022;28;20096;-39
2021/11/21 20:58:23;;;;;;;43.38;33.72;;;22.90;59.40;;;;;;31622774;28;20052;-45
2021/11/21 21:13:25;;;;;;;32.97;23.77;;;22.80;57.80;;;;;;31620727;28;20044;-44
2021/11/21 21:28:27;;;;;;;26.02;20.05;;;22.80;58.40;;;;;;31618866;28;20041;-45
2021/11/21 21:43:29;;;;;;;23.63;19.00;;;22.90;58.50;;;;;;31620177;28;20044;-45
2021/11/21 21:58:31;;;;;;;22.50;17.27;;;22.80;58.60;;;;;;31642088;28;20052;-38
2021/11/21 22:13:33;;;;;;;21.55;16.05;;;22.80;58.60;;;;;;31643055;28;20129;-38
2021/11/21 22:28:35;;;;;;;22.38;15.40;;;22.80;58.50;;;;;;31639117;28;20099;-43
2021/11/21 22:43:37;;;;;;;17.08;14.07;;;22.80;58.70;;;;;;31637848;28;20079;-39
2021/11/21 22:58:39;;;;;;;20.15;12.98;;;23.20;58.60;;;;;;31635254;28;20135;-40
2021/11/21 23:13:42;;;;;;;15.32;12.13;;;23.20;58.00;;;;;;31633096;28;20044;-44
2021/11/21 23:28:45;;;;;;;15.68;11.15;;;23.20;57.90;;;;;;31585054;28;20093;-40
2021/11/21 23:43:47;;;;;;;16.17;11.05;;;23.30;57.90;;;;;;31621106;28;20079;-46
2021/11/21 23:58:49;;;;;;;11.80;9.82;;;23.20;57.90;;;;;;31552196;28;20505;-38
